Terrell, TX

8:49 PM CDT on July 27, 2016 (GMT -0500)
APRSWXNET | | Change Station

Elev 505 ft 32.80 °N, 96.30 °W | Updated 41 minutes ago

Overcast
Overcast
87 °F
Feels Like 98 °F
N
0
Wind Variable Wind from SSE
Gusts 4.0 mph

Today
High -- | Low -- °F
--% Chance of Precip.
Yesterday
High -- | Low -- °F
Precip. -- in
Pressure 29.92 in
Visibility 10.0 miles
Clouds Few 3800 ft
Overcast 6000 ft
Heat Index 98 °F
Dew Point 76 °F
Humidity 71%
Rainfall in
Snow Depth Not available.
6:36 AM 8:26 PM
Last Quarter, 37% visible
SPECI KTRL 280141Z AUTO 16004KT 10SM FEW038 OVC060 29/23 A2992 RMK AO2 LTG DSNT NE AND E T02940233
Pressure 29.92 in
Visibility 10.0 miles
Clouds Few 3800 ft
Overcast 6000 ft
Heat Index 98 °F
Dew Point 76 °F
Humidity 71%
Rainfall in
Snow Depth Not available.
6:36 AM 8:26 PM
Last Quarter, 37% visible
SPECI KTRL 280141Z AUTO 16004KT 10SM FEW038 OVC060 29/23 A2992 RMK AO2 LTG DSNT NE AND E T02940233

10-Day Weather Forecast

Almanac

Astronomy

Jul. 27, 2016 Rise Set
Actual Time
Civil Twilight
Nautical Twilight
Astronomical Twilight
Moon
Length of Visible Light
Length of Day
Tomorrow will be .
, % of the Moon is Illuminated

Today's Extremes

State Highs State Lows

Community

WunderPhotos

Upload Photos

1,928,005 photos uploaded!

WunderBlog® & News

Nearby

Air Quality

  Air Quality AQ Index Pollutant
Not available.

Snow Depth

Station Depth Elevation

Earthquake Activity

City Distance Mag. Time & Date
Minimum magnitude displayed is 2.5.

Coastal Water Temperatures

Place Temperature

Stations

Nearby Weather Stations

Station Location Temp. Windchill Dew Point Humidity Wind Precip. Elev Updated Type
                   

Watches & Warnings

There are currently no watches in effect.